Time;durP1;ratioP1;P1;durP2;ratioP2;P2;SDS_P1;SDS_P2;PMS_P1;PMS_P2;Temp;Humidity;BMP_temperature;BMP_pressure;BME280_temperature;BME280_humidity;BME280_pressure;Samples;Min_cycle;Max_cycle;Signal;HPM_P1;HPM_P2
2021/11/22 00:01:51;;;;;;;29.23;18.80;;;5.30;83.20;;;3.12;97.14;95682.56;4923550;28;20029;-67
2021/11/22 00:04:17;;;;;;;30.05;18.73;;;5.20;83.10;;;3.11;97.04;95680.13;4910454;29;20043;-66
2021/11/22 00:06:43;;;;;;;29.45;18.52;;;5.30;83.10;;;3.08;96.98;95676.88;4896121;29;20037;-66
2021/11/22 00:09:09;;;;;;;29.33;20.13;;;5.20;83.20;;;3.09;97.13;95672.50;4894827;29;20071;-66
2021/11/22 00:11:34;;;;;;;32.22;19.83;;;5.20;83.30;;;3.10;97.00;95668.13;4910808;28;20047;-67
2021/11/22 00:14:00;;;;;;;32.10;20.80;;;5.30;83.30;;;3.12;97.13;95671.38;4894981;29;20036;-67
2021/11/22 00:16:26;;;;;;;29.63;18.63;;;5.30;83.20;;;3.13;97.32;95665.19;4907355;29;20412;-67
2021/11/22 00:18:52;;;;;;;28.73;18.95;;;5.30;83.20;;;3.12;97.45;95668.78;4927802;29;20538;-65
2021/11/22 00:21:18;;;;;;;28.73;18.88;;;5.30;83.10;;;3.15;96.97;95665.84;4919079;29;20063;-66
2021/11/22 00:23:44;;;;;;;29.55;18.92;;;5.40;83.10;;;3.14;97.23;95662.44;4882962;28;20091;-66
2021/11/22 00:26:09;;;;;;;32.22;18.83;;;5.30;82.90;;;3.15;96.95;95671.06;4899625;29;20127;-66
2021/11/22 00:28:35;;;;;;;29.55;19.58;;;5.30;82.80;;;3.14;96.47;95670.25;4916120;28;20044;-66
2021/11/22 00:31:01;;;;;;;30.08;19.65;;;5.30;82.90;;;3.14;96.59;95672.03;4899256;29;20047;-66
2021/11/22 00:33:26;;;;;;;31.20;20.13;;;5.30;82.80;;;3.15;96.93;95678.84;4910960;28;20428;-67
2021/11/22 00:35:52;;;;;;;27.52;18.83;;;5.30;83.00;;;3.14;96.67;95679.81;4928343;28;20552;-67
2021/11/22 00:38:18;;;;;;;31.67;20.25;;;5.40;83.10;;;3.13;96.86;95679.00;4902018;29;20543;-67
2021/11/22 00:40:44;;;;;;;31.77;20.02;;;5.30;83.10;;;3.16;97.31;95680.47;4918812;29;20032;-65
2021/11/22 00:43:10;;;;;;;30.17;19.25;;;5.40;83.20;;;3.15;97.33;95694.44;4930582;28;20052;-66
2021/11/22 00:45:36;;;;;;;29.45;19.85;;;5.30;83.10;;;3.11;97.10;95695.72;4914065;28;20552;-65
2021/11/22 00:48:02;;;;;;;30.48;20.27;;;5.20;83.00;;;3.10;97.18;95696.69;4895187;29;20029;-66
2021/11/22 00:50:29;;;;;;;31.52;19.48;;;5.30;83.00;;;3.12;96.66;95697.34;4923834;28;20524;-67
2021/11/22 00:52:55;;;;;;;33.97;20.58;;;5.30;83.10;;;3.12;96.73;95690.38;4907382;29;20032;-65
2021/11/22 00:55:21;;;;;;;31.08;19.80;;;5.20;82.90;;;3.13;96.89;95694.59;4913504;29;20091;-65
2021/11/22 00:57:47;;;;;;;33.78;21.05;;;5.30;83.10;;;3.10;96.79;95688.91;4904784;28;20052;-65
2021/11/22 01:00:15;;;;;;;30.92;19.67;;;5.30;83.20;;;3.13;97.15;95696.38;4903285;29;20040;-66
2021/11/22 01:02:40;;;;;;;33.50;20.52;;;5.30;83.00;;;3.11;97.17;95695.72;4913465;29;20409;-66
2021/11/22 01:05:07;;;;;;;32.10;20.63;;;5.30;83.10;;;3.12;97.04;95702.56;4896325;29;20123;-66
2021/11/22 01:07:32;;;;;;;32.60;20.17;;;5.20;83.10;;;3.09;96.73;95698.47;4895321;28;20051;-66
2021/11/22 01:09:58;;;;;;;30.90;19.70;;;5.30;82.80;;;3.11;96.73;95695.72;4914116;29;20048;-67
2021/11/22 01:12:28;;;;;;;32.42;21.45;;;5.30;83.00;;;3.12;96.98;95702.56;4913044;29;20072;-66
2021/11/22 01:15:09;;;;;;;31.50;19.92;;;5.30;83.10;;;3.12;97.14;95711.16;4936544;28;20055;-66
2021/11/22 01:17:36;;;;;;;32.10;20.45;;;5.30;83.10;;;3.10;97.12;95705.31;4948042;28;20032;-66
2021/11/22 01:20:04;;;;;;;32.55;20.23;;;5.30;83.10;;;3.11;96.60;95721.72;4926623;28;20535;-66
2021/11/22 01:22:30;;;;;;;31.05;19.63;;;5.30;82.90;;;3.10;96.60;95717.47;4917238;29;20055;-66
2021/11/22 01:24:56;;;;;;;31.75;20.55;;;5.30;82.90;;;3.10;96.64;95717.47;4882427;29;20033;-66
2021/11/22 01:27:22;;;;;;;31.08;21.10;;;5.30;82.80;;;3.09;96.85;95716.66;4914237;28;20115;-66
2021/11/22 01:29:48;;;;;;;31.50;20.38;;;5.20;83.10;;;3.11;97.09;95716.50;4912696;28;20044;-66
2021/11/22 01:32:14;;;;;;;29.98;19.52;;;5.20;83.10;;;3.06;96.64;95710.00;4912813;29;20414;-66
2021/11/22 01:34:39;;;;;;;31.92;21.75;;;5.20;82.90;;;3.08;96.60;95723.66;4897637;29;20547;-66
2021/11/22 01:37:05;;;;;;;33.10;21.05;;;5.30;83.20;;;3.07;96.64;95727.22;4896939;29;20098;-66
2021/11/22 01:39:31;;;;;;;31.20;20.98;;;5.20;83.20;;;3.05;97.02;95726.56;4897037;28;20070;-66
2021/11/22 01:41:57;;;;;;;30.80;19.45;;;5.20;83.30;;;3.05;97.09;95720.53;4923888;29;20176;-66
2021/11/22 01:44:23;;;;;;;31.98;20.17;;;5.10;83.20;;;3.01;97.22;95717.44;4914640;29;20092;-66
2021/11/22 01:46:49;;;;;;;29.77;20.17;;;5.10;83.40;;;3.03;97.24;95715.50;4910989;29;20051;-65
2021/11/22 01:49:17;;;;;;;27.75;19.60;;;5.20;83.30;;;3.04;97.29;95717.13;4921063;29;20028;-65
2021/11/22 01:51:42;;;;;;;28.38;20.20;;;5.20;83.30;;;3.03;97.01;95714.69;4897022;28;20569;-65
2021/11/22 01:54:08;;;;;;;30.00;19.15;;;5.20;83.20;;;3.05;96.77;95715.34;4896902;29;20143;-65
2021/11/22 01:56:34;;;;;;;31.27;20.38;;;5.20;83.10;;;3.05;96.74;95723.94;4912763;29;20042;-66
2021/11/22 01:58:59;;;;;;;35.17;21.45;;;5.20;83.30;;;3.03;97.21;95715.50;4898472;29;20693;-66
2021/11/22 02:01:26;;;;;;;34.25;21.00;;;5.20;83.10;;;3.04;97.02;95717.13;4909823;28;20040;-67
2021/11/22 02:03:52;;;;;;;35.00;21.98;;;5.20;83.00;;;3.03;96.95;95720.69;4913855;28;20032;-66
2021/11/22 02:06:18;;;;;;;33.25;21.40;;;5.20;83.30;;;3.03;97.03;95720.69;4909233;29;20064;-66
2021/11/22 02:08:45;;;;;;;36.70;21.67;;;5.20;83.40;;;3.05;97.23;95729.16;4912535;29;20074;-66
2021/11/22 02:11:12;;;;;;;34.67;22.48;;;5.20;83.50;;;3.05;97.70;95720.53;4912901;29;20040;-66
2021/11/22 02:13:38;;;;;;;47.08;29.02;;;5.20;83.70;;;3.07;97.85;95731.59;4882602;28;20055;-66
2021/11/22 02:16:04;;;;;;;34.60;21.40;;;5.30;84.00;;;3.08;97.89;95726.25;4898387;29;20054;-65
2021/11/22 02:18:30;;;;;;;33.90;21.58;;;5.20;83.80;;;3.07;97.51;95722.00;4898622;29;20104;-66
2021/11/22 02:20:56;;;;;;;36.70;22.05;;;5.20;83.90;;;3.06;97.50;95728.19;4933640;29;20028;-65
2021/11/22 02:23:22;;;;;;;36.13;21.23;;;5.20;84.00;;;3.06;98.07;95714.38;4916792;28;20052;-65
2021/11/22 02:25:47;;;;;;;33.90;21.40;;;5.20;83.90;;;3.04;98.12;95732.72;4880221;28;20067;-65
2021/11/22 02:28:14;;;;;;;34.13;21.08;;;5.20;84.00;;;3.06;98.21;95735.16;4880878;29;20042;-65
2021/11/22 02:30:43;;;;;;;35.28;20.20;;;5.20;84.10;;;3.05;98.13;95736.94;4892793;29;20176;-65
2021/11/22 02:33:11;;;;;;;32.60;19.80;;;5.20;83.90;;;3.06;98.36;95735.97;4878974;29;20424;-65
2021/11/22 02:35:42;;;;;;;34.45;20.17;;;5.20;83.90;;;3.07;98.41;95732.41;4910006;28;20032;-66
2021/11/22 02:38:07;;;;;;;29.42;18.92;;;5.20;83.70;;;3.08;98.05;95743.63;4903888;29;20043;-65
2021/11/22 02:40:33;;;;;;;31.02;20.40;;;5.30;83.90;;;3.07;98.26;95742.00;4923988;28;20420;-65
2021/11/22 02:42:59;;;;;;;33.80;19.40;;;5.30;84.00;;;3.07;97.92;95747.19;4880059;29;20507;-66
2021/11/22 02:45:25;;;;;;;37.95;21.60;;;5.20;83.90;;;3.07;97.96;95742.81;4912024;29;20211;-65
2021/11/22 02:47:51;;;;;;;32.33;20.73;;;5.20;83.90;;;3.09;98.00;95740.06;4895610;29;20075;-65
2021/11/22 02:50:20;;;;;;;34.53;19.42;;;5.30;84.00;;;3.06;98.08;95738.56;4896370;29;20032;-65
2021/11/22 02:52:47;;;;;;;33.47;19.98;;;5.30;83.90;;;3.07;98.41;95737.59;4881481;29;20107;-65
2021/11/22 02:55:15;;;;;;;34.17;20.63;;;5.20;83.90;;;3.05;97.90;95744.75;4896052;29;20051;-65
2021/11/22 02:57:40;;;;;;;32.63;19.60;;;5.20;83.90;;;3.05;97.97;95744.75;4902581;28;20059;-65
2021/11/22 03:00:14;;;;;;;32.28;19.95;;;5.10;83.70;;;3.05;98.25;95744.75;4922743;28;20128;-66
2021/11/22 03:02:41;;;;;;;34.80;19.40;;;5.20;83.90;;;3.05;98.41;95749.94;4912439;28;20043;-66
2021/11/22 03:05:07;;;;;;;37.83;21.27;;;5.20;84.00;;;3.06;98.63;95746.38;4909330;29;20035;-66
2021/11/22 03:07:33;;;;;;;34.53;20.90;;;5.20;84.00;;;3.05;98.53;95751.72;4927115;28;20039;-65
2021/11/22 03:09:59;;;;;;;34.88;20.77;;;5.20;83.90;;;3.06;98.36;95751.56;4910254;29;20429;-65
2021/11/22 03:12:24;;;;;;;53.20;34.08;;;5.20;83.90;;;3.06;98.59;95756.75;4895402;29;20047;-65
2021/11/22 03:14:50;;;;;;;46.78;27.55;;;5.20;84.00;;;3.05;98.41;95752.53;4912646;28;20044;-66
2021/11/22 03:17:16;;;;;;;53.45;32.83;;;5.30;83.90;;;3.11;98.37;95752.88;4914923;29;20452;-66
2021/11/22 03:19:42;;;;;;;46.53;25.08;;;5.30;84.00;;;3.10;98.73;95746.06;4904986;28;20075;-66
2021/11/22 03:22:08;;;;;;;45.63;27.00;;;5.30;83.60;;;3.13;98.80;95756.16;4908284;29;20037;-66
2021/11/22 03:24:34;;;;;;;39.50;23.20;;;5.40;83.70;;;3.14;98.20;95757.78;4915022;28;20036;-66
2021/11/22 03:27:01;;;;;;;38.13;23.42;;;5.30;83.70;;;3.14;98.04;95757.78;4924059;28;20044;-66
2021/11/22 03:29:26;;;;;;;42.17;23.63;;;5.30;83.70;;;3.14;98.44;95762.97;4905746;29;20046;-66
2021/11/22 03:31:52;;;;;;;38.72;25.05;;;5.30;83.60;;;3.14;98.08;95762.97;4895447;29;20052;-65
2021/11/22 03:34:18;;;;;;;35.85;21.50;;;5.30;83.70;;;3.12;97.79;95755.34;4895363;29;20150;-66
2021/11/22 03:36:44;;;;;;;32.38;20.15;;;5.30;83.70;;;3.13;98.08;95766.53;4895428;29;20119;-65
2021/11/22 03:39:17;;;;;;;32.47;21.10;;;5.30;83.80;;;3.12;98.42;95765.72;4921232;28;20032;-66
2021/11/22 03:41:43;;;;;;;36.75;20.83;;;5.30;83.70;;;3.14;98.29;95773.38;4897939;28;20028;-66
2021/11/22 03:44:15;;;;;;;36.05;20.38;;;5.30;83.70;;;3.12;98.52;95786.50;4910523;29;20080;-68
2021/11/22 03:46:44;;;;;;;36.90;19.90;;;5.30;83.80;;;3.14;98.36;95778.56;4911461;29;20044;-67
2021/11/22 03:49:10;;;;;;;34.38;20.90;;;5.30;83.70;;;3.13;98.25;95782.94;4899517;29;20060;-67
2021/11/22 03:51:36;;;;;;;35.17;20.98;;;5.30;83.70;;;3.13;98.13;95784.72;4894766;28;20441;-66
2021/11/22 03:54:02;;;;;;;32.80;19.25;;;5.30;83.60;;;3.14;98.19;95783.75;4908076;29;20411;-66
2021/11/22 03:56:27;;;;;;;36.22;21.30;;;5.30;83.80;;;3.12;98.57;95781.31;4915253;29;20643;-66
2021/11/22 03:58:53;;;;;;;34.47;20.77;;;5.40;83.80;;;3.15;98.41;95786.22;4899826;29;20035;-66
2021/11/22 04:01:19;;;;;;;32.80;21.13;;;5.30;83.70;;;3.16;98.43;95787.03;4925692;29;20023;-67
2021/11/22 04:03:45;;;;;;;42.22;27.25;;;5.40;83.70;;;3.18;98.35;95792.91;4927068;28;20024;-65
2021/11/22 04:06:11;;;;;;;51.08;32.88;;;5.40;83.80;;;3.18;98.60;95798.13;4914804;28;20440;-66
2021/11/22 04:08:37;;;;;;;40.70;24.92;;;5.40;83.80;;;3.20;98.47;95801.38;4914391;29;20432;-66
2021/11/22 04:11:03;;;;;;;37.58;21.67;;;5.40;83.70;;;3.21;98.64;95805.59;4913964;29;20072;-66
2021/11/22 04:13:28;;;;;;;35.83;21.40;;;5.40;83.70;;;3.20;98.19;95804.78;4898508;28;20062;-66
2021/11/22 04:15:54;;;;;;;37.22;21.88;;;5.40;83.60;;;3.20;98.14;95809.16;4899168;29;20115;-65
2021/11/22 04:18:20;;;;;;;40.13;21.83;;;5.40;83.60;;;3.20;98.41;95814.38;4898856;29;20127;-66
2021/11/22 04:20:46;;;;;;;39.40;23.10;;;5.40;83.60;;;3.23;98.41;95821.88;4883441;29;20028;-66
2021/11/22 04:23:12;;;;;;;39.58;23.25;;;5.40;83.60;;;3.19;98.44;95823.13;4921836;29;20070;-65
2021/11/22 04:25:38;;;;;;;38.88;22.30;;;5.40;83.80;;;3.22;98.55;95823.66;4919844;29;20025;-66
2021/11/22 04:28:05;;;;;;;40.42;21.63;;;5.40;83.70;;;3.19;98.35;95823.13;4896055;29;20028;-66
2021/11/22 04:30:31;;;;;;;39.90;21.55;;;5.40;83.80;;;3.21;98.79;95826.41;4914559;29;20516;-65
2021/11/22 04:32:57;;;;;;;40.83;23.50;;;5.40;83.90;;;3.22;98.58;95828.03;4914046;29;20040;-66
2021/11/22 04:35:23;;;;;;;40.05;23.40;;;5.40;84.00;;;3.23;99.04;95827.06;4898887;29;20404;-66
2021/11/22 04:37:49;;;;;;;41.70;22.60;;;5.50;84.00;;;3.22;98.41;95823.66;4913342;28;20044;-66
2021/11/22 04:40:16;;;;;;;44.80;24.13;;;5.40;83.90;;;3.21;99.04;95829.00;4913888;29;20048;-66
2021/11/22 04:42:45;;;;;;;44.92;23.38;;;5.30;84.00;;;3.21;99.06;95836.78;4898342;29;20407;-66
2021/11/22 04:45:11;;;;;;;41.10;23.15;;;5.40;84.10;;;3.21;99.02;95836.78;4924696;29;20055;-66
2021/11/22 04:47:37;;;;;;;41.88;23.30;;;5.40;84.10;;;3.21;98.77;95836.78;4913000;28;20028;-68
2021/11/22 04:50:03;;;;;;;44.72;25.08;;;5.40;83.90;;;3.20;98.99;95841.19;4929757;28;20028;-68
2021/11/22 04:52:29;;;;;;;40.85;22.88;;;5.40;84.20;;;3.22;98.72;95843.63;4913410;29;20494;-63
2021/11/22 04:54:55;;;;;;;41.63;24.13;;;5.40;84.00;;;3.22;98.72;95849.63;4907863;29;20032;-64
2021/11/22 04:57:20;;;;;;;40.70;23.83;;;5.40;84.10;;;3.22;98.84;95835.81;4929946;28;20068;-64
2021/11/22 04:59:46;;;;;;;41.75;23.42;;;5.40;84.10;;;3.22;98.69;95846.22;4913399;28;20110;-64
2021/11/22 05:02:12;;;;;;;45.45;22.88;;;5.40;84.20;;;3.22;98.93;95841.03;4923046;28;20044;-64
2021/11/22 05:04:38;;;;;;;42.28;23.35;;;5.40;84.20;;;3.22;99.37;95844.44;4933294;28;20040;-64
2021/11/22 05:07:04;;;;;;;41.72;24.15;;;5.50;84.30;;;3.25;98.78;95841.53;4914009;29;20516;-64
2021/11/22 05:09:30;;;;;;;44.20;24.45;;;5.50;84.10;;;3.26;98.71;95850.97;4913526;28;20081;-64
2021/11/22 05:11:55;;;;;;;44.63;23.20;;;5.50;84.20;;;3.26;99.29;95848.38;4898385;29;20043;-64
2021/11/22 05:14:21;;;;;;;48.60;26.70;;;5.50;84.20;;;3.27;99.36;95854.38;4915211;28;20070;-63
2021/11/22 05:16:47;;;;;;;49.60;27.92;;;5.50;84.50;;;3.28;99.64;95856.00;4882560;29;20103;-63
2021/11/22 05:19:13;;;;;;;48.20;27.38;;;5.50;84.50;;;3.28;99.74;95851.63;4898167;29;20091;-63
2021/11/22 05:21:39;;;;;;;44.78;25.35;;;5.50;84.40;;;3.30;99.56;95857.50;4913698;28;20032;-64
2021/11/22 05:24:05;;;;;;;40.47;23.15;;;5.50;84.40;;;3.29;99.72;95857.66;4897497;29;20043;-63
2021/11/22 05:26:31;;;;;;;43.83;23.95;;;5.50;84.10;;;3.30;98.88;95862.69;4914078;29;20047;-64
2021/11/22 05:28:58;;;;;;;42.42;23.42;;;5.50;83.90;;;3.31;99.15;95868.69;4898297;29;20070;-64
2021/11/22 05:31:24;;;;;;;44.78;24.33;;;5.50;84.10;;;3.29;99.16;95865.44;4882657;29;20036;-64
2021/11/22 05:33:51;;;;;;;45.50;25.55;;;5.50;83.90;;;3.28;99.37;95869.81;4897700;28;20091;-63
2021/11/22 05:36:17;;;;;;;45.97;24.05;;;5.40;84.00;;;3.29;99.25;95870.63;4898233;29;20119;-64
2021/11/22 05:38:43;;;;;;;46.28;24.45;;;5.50;84.20;;;3.28;99.12;95869.00;4897801;29;20119;-64
2021/11/22 05:41:08;;;;;;;43.20;23.17;;;5.50;84.20;;;3.31;99.31;95868.69;4913573;29;20040;-64
2021/11/22 05:43:36;;;;;;;40.75;23.10;;;5.40;84.20;;;3.30;99.20;95875.69;4912906;28;20036;-64
2021/11/22 05:46:06;;;;;;;39.70;23.05;;;5.50;84.20;;;3.28;99.29;95874.22;4909750;29;20126;-63
2021/11/22 05:48:31;;;;;;;41.08;23.83;;;5.50;84.20;;;3.29;99.56;95871.47;4926757;28;20357;-64
2021/11/22 05:50:59;;;;;;;41.28;22.80;;;5.50;84.10;;;3.31;99.06;95873.91;4916726;29;20091;-64
2021/11/22 05:53:27;;;;;;;41.17;22.98;;;5.40;84.10;;;3.32;98.88;95880.72;4902017;29;20404;-64
2021/11/22 05:55:52;;;;;;;35.60;21.50;;;5.50;84.10;;;3.32;99.08;95885.94;4878876;29;20119;-63
2021/11/22 05:58:19;;;;;;;35.72;21.45;;;5.50;84.00;;;3.30;99.19;95886.09;4907649;29;20517;-64
2021/11/22 06:00:45;;;;;;;32.47;19.55;;;5.50;83.90;;;3.33;98.98;95892.75;4932514;28;20180;-64
2021/11/22 06:03:11;;;;;;;37.17;21.67;;;5.50;84.00;;;3.32;99.34;95885.94;4915043;28;20040;-64
2021/11/22 06:05:37;;;;;;;36.45;21.92;;;5.50;84.20;;;3.34;99.25;95894.41;4912947;28;20163;-64
2021/11/22 06:08:03;;;;;;;35.55;20.98;;;5.60;84.50;;;3.37;99.54;95896.69;4894008;29;20029;-63
2021/11/22 06:10:29;;;;;;;37.20;20.98;;;5.60;84.70;;;3.41;99.49;95905.84;4884483;29;20056;-64
2021/11/22 06:12:54;;;;;;;34.53;20.70;;;5.70;84.70;;;3.42;99.93;95912.69;4928251;28;20040;-64
2021/11/22 06:15:20;;;;;;;37.53;21.90;;;5.70;84.30;;;3.43;100.00;95903.91;4914336;28;20039;-64
2021/11/22 06:17:46;;;;;;;34.08;20.85;;;5.70;84.20;;;3.47;100.00;95905.25;4912655;28;20051;-64
2021/11/22 06:20:12;;;;;;;33.50;20.90;;;5.70;84.50;;;3.52;100.00;95913.41;4897234;29;20135;-64
2021/11/22 06:22:37;;;;;;;34.47;21.17;;;5.80;84.50;;;3.52;99.83;95918.63;4912864;29;20043;-64
2021/11/22 06:25:04;;;;;;;37.03;22.13;;;5.80;84.10;;;3.55;99.63;95923.50;4912477;29;20056;-64
2021/11/22 06:27:30;;;;;;;35.88;21.83;;;5.80;83.90;;;3.58;99.65;95925.81;4912314;28;20168;-64
2021/11/22 06:29:56;;;;;;;34.15;21.88;;;5.80;84.00;;;3.58;98.89;95923.19;4913900;28;20091;-64
2021/11/22 06:32:30;;;;;;;36.72;22.85;;;5.80;84.00;;;3.61;99.68;95933.31;5050093;28;21040;-63
2021/11/22 06:34:56;;;;;;;36.28;22.35;;;5.80;84.00;;;3.61;98.79;95927.28;5007156;28;20026;-63
2021/11/22 06:37:23;;;;;;;36.00;23.10;;;5.80;83.60;;;3.60;98.96;95923.88;4999127;28;20378;-63
2021/11/22 06:39:48;;;;;;;34.67;21.65;;;5.80;83.60;;;3.61;99.69;95933.31;4969431;28;21006;-64
2021/11/22 06:42:15;;;;;;;36.45;22.17;;;5.80;83.60;;;3.62;99.45;95934.97;4986957;28;20122;-64
2021/11/22 06:44:41;;;;;;;34.67;23.02;;;5.80;83.50;;;3.61;99.33;95938.50;4986160;28;20521;-64
2021/11/22 06:47:06;;;;;;;34.83;23.13;;;5.80;83.60;;;3.64;99.22;95947.81;5001728;28;20034;-64
2021/11/22 06:49:32;;;;;;;36.42;22.88;;;5.80;83.70;;;3.65;98.85;95946.84;4985763;28;20039;-64
2021/11/22 06:51:58;;;;;;;37.72;23.52;;;5.90;83.60;;;3.68;98.93;95944.75;4985903;28;20192;-64
2021/11/22 06:54:24;;;;;;;32.90;23.42;;;5.80;83.70;;;3.71;99.46;95958.44;4986842;28;20576;-64
2021/11/22 06:56:49;;;;;;;32.45;22.38;;;5.90;83.70;;;3.69;98.99;95954.19;4986066;28;20572;-64
2021/11/22 06:59:15;;;;;;;34.05;22.27;;;5.90;83.40;;;3.70;98.33;95962.81;4987001;28;20065;-64
2021/11/22 07:01:41;;;;;;;32.10;22.13;;;5.90;83.50;;;3.68;98.54;95962.97;4985242;28;20038;-64
2021/11/22 07:04:07;;;;;;;35.25;23.02;;;5.80;83.00;;;3.69;98.07;95971.59;4985500;28;20038;-64
2021/11/22 07:06:33;;;;;;;32.22;21.20;;;5.80;82.80;;;3.67;98.07;95976.13;4985389;28;20457;-64
2021/11/22 07:08:59;;;;;;;37.13;23.80;;;5.80;82.90;;;3.65;98.46;95975.47;4984970;28;20062;-64
2021/11/22 07:11:24;;;;;;;40.05;24.48;;;5.80;83.00;;;3.63;98.25;95978.22;4986954;28;20031;-64
2021/11/22 07:13:50;;;;;;;37.60;24.60;;;5.80;83.20;;;3.63;98.20;95973.00;4986290;28;20159;-64
2021/11/22 07:16:16;;;;;;;36.92;25.05;;;5.80;83.10;;;3.61;97.63;95980.13;4986415;28;20058;-64
2021/11/22 07:18:42;;;;;;;42.17;25.98;;;5.70;83.20;;;3.59;97.87;95982.06;4985364;28;20117;-64
2021/11/22 07:21:08;;;;;;;45.40;26.30;;;5.70;83.30;;;3.58;98.68;95990.81;4985044;28;20081;-64
2021/11/22 07:23:34;;;;;;;41.78;26.10;;;5.70;83.40;;;3.56;98.21;95992.75;5000953;28;20034;-64
2021/11/22 07:25:59;;;;;;;41.88;25.52;;;5.70;83.50;;;3.57;97.97;95999.59;4985174;28;20026;-64
2021/11/22 07:28:25;;;;;;;40.78;24.90;;;5.70;83.60;;;3.57;98.01;96004.78;4986797;28;20034;-64
2021/11/22 07:30:51;;;;;;;39.92;23.63;;;5.70;83.60;;;3.55;98.72;96011.94;4985104;28;20640;-63
2021/11/22 07:33:17;;;;;;;40.85;24.90;;;5.70;83.50;;;3.54;98.25;96007.69;4986204;28;20058;-63
2021/11/22 07:35:43;;;;;;;41.58;24.63;;;5.70;83.50;;;3.55;98.54;96001.53;4984641;28;20138;-65
2021/11/22 07:38:09;;;;;;;42.92;25.23;;;5.70;83.70;;;3.55;98.64;96019.72;4986292;28;20019;-65
2021/11/22 07:40:35;;;;;;;39.92;24.58;;;5.80;83.90;;;3.55;99.14;96011.94;4984728;28;20038;-65
2021/11/22 07:43:01;;;;;;;41.60;24.13;;;5.70;83.50;;;3.57;98.83;96020.41;4977741;28;20039;-65
2021/11/22 07:45:27;;;;;;;41.33;23.63;;;5.80;83.50;;;3.59;98.94;96023.66;4957490;28;20042;-65
2021/11/22 07:47:52;;;;;;;39.38;24.23;;;5.80;83.60;;;3.60;98.63;96020.09;4974666;28;20114;-65
2021/11/22 07:50:22;;;;;;;36.97;23.30;;;5.80;83.40;;;3.62;98.40;96028.59;4956596;28;20054;-65
2021/11/22 07:52:48;;;;;;;42.58;24.38;;;5.80;83.50;;;3.63;99.24;96030.22;4973176;28;20050;-65
2021/11/22 07:55:14;;;;;;;43.05;24.67;;;5.90;83.40;;;3.63;98.62;96035.44;4956069;28;20082;-65
2021/11/22 07:57:40;;;;;;;40.22;24.02;;;5.90;83.50;;;3.67;98.31;96041.16;4971978;28;20027;-65
2021/11/22 08:00:10;;;;;;;39.38;23.17;;;5.90;83.40;;;3.70;98.64;96040.84;4955695;28;20147;-65
2021/11/22 08:02:36;;;;;;;38.63;22.50;;;5.90;83.40;;;3.72;98.49;96045.91;4955440;28;20126;-65
2021/11/22 08:05:03;;;;;;;37.35;22.67;;;6.00;83.40;;;3.74;98.89;96041.38;4971495;28;20042;-65
2021/11/22 08:07:29;;;;;;;35.72;21.13;;;6.00;83.30;;;3.75;99.08;96041.22;4971223;28;20129;-67
2021/11/22 08:09:59;;;;;;;34.80;21.50;;;6.00;83.20;;;3.79;99.13;96052.13;4972857;28;20368;-65
2021/11/22 08:12:26;;;;;;;37.17;21.85;;;6.10;83.10;;;3.80;98.35;96052.00;4971789;28;20284;-65
2021/11/22 08:15:09;;;;;;;36.50;22.05;;;6.10;83.20;;;3.84;99.41;96052.50;4955475;28;20420;-65
2021/11/22 08:17:34;;;;;;;35.55;20.50;;;6.10;83.20;;;3.83;98.86;96045.66;4970627;28;20090;-65
2021/11/22 08:20:00;;;;;;;36.72;21.67;;;6.10;83.10;;;3.89;98.32;96060.72;4955072;28;20505;-65
2021/11/22 08:22:26;;;;;;;36.28;21.10;;;6.10;83.00;;;3.90;98.97;96062.34;4955083;28;20047;-65
2021/11/22 08:24:53;;;;;;;39.22;23.08;;;6.10;82.90;;;3.89;98.62;96056.31;4971409;28;20054;-65
2021/11/22 08:27:28;;;;;;;36.95;21.77;;;6.10;82.90;;;3.92;97.98;96055.22;4955356;28;20031;-65
2021/11/22 08:29:55;;;;;;;35.67;21.70;;;6.20;83.00;;;3.95;98.04;96060.94;4970792;28;20034;-65
2021/11/22 08:32:22;;;;;;;37.30;21.98;;;6.20;83.00;;;3.99;98.47;96064.03;4970717;28;20465;-64
2021/11/22 08:34:47;;;;;;;37.45;21.60;;;6.20;83.00;;;4.02;99.14;96061.13;4970981;28;20051;-64
2021/11/22 08:37:13;;;;;;;34.42;20.80;;;6.30;82.90;;;4.05;98.25;96066.03;4972272;28;20457;-64
2021/11/22 08:39:39;;;;;;;34.05;20.77;;;6.30;83.00;;;4.08;99.06;96076.19;4970633;28;20037;-65
2021/11/22 08:42:05;;;;;;;33.70;21.10;;;6.30;82.80;;;4.08;98.88;96081.38;4971124;28;20038;-64
2021/11/22 08:44:31;;;;;;;36.55;20.98;;;6.30;82.70;;;4.11;98.47;96090.69;4970728;28;20053;-64
2021/11/22 08:46:57;;;;;;;35.78;20.35;;;6.30;82.90;;;4.09;98.21;96097.81;4972043;28;20066;-64
2021/11/22 08:49:23;;;;;;;34.50;20.45;;;6.30;82.90;;;4.13;98.63;96104.38;4973404;28;20035;-64
2021/11/22 08:51:49;;;;;;;35.00;19.90;;;6.30;82.80;;;4.13;98.59;96099.16;4970557;28;20150;-65
2021/11/22 08:54:14;;;;;;;36.22;19.63;;;6.30;82.80;;;4.14;97.69;96104.22;4969353;28;20090;-64
2021/11/22 08:56:40;;;;;;;34.28;20.10;;;6.30;82.90;;;4.17;97.88;96111.72;4972334;28;20117;-64
2021/11/22 08:59:06;;;;;;;34.92;17.60;;;6.40;83.20;;;4.19;98.54;96117.59;4970677;28;20027;-64
2021/11/22 09:01:32;;;;;;;31.20;19.27;;;6.40;82.90;;;4.19;98.75;96120.19;4971049;28;20093;-65
2021/11/22 09:03:57;;;;;;;31.55;18.50;;;6.40;82.60;;;4.17;98.37;96116.94;4970151;28;20137;-63
2021/11/22 09:06:23;;;;;;;28.50;17.75;;;6.50;82.90;;;4.24;97.94;96123.16;4970570;28;20407;-64
2021/11/22 09:08:49;;;;;;;29.77;17.77;;;6.50;82.70;;;4.27;98.22;96117.66;4970498;28;20030;-64
2021/11/22 09:11:15;;;;;;;30.45;18.02;;;6.50;82.50;;;4.31;97.70;96123.41;4971626;28;20469;-64
2021/11/22 09:13:41;;;;;;;31.48;18.83;;;6.60;82.20;;;4.35;97.98;96118.72;4969705;28;20043;-64
2021/11/22 09:16:07;;;;;;;30.25;18.23;;;6.70;82.20;;;4.38;98.27;96115.81;4970088;28;20031;-64
2021/11/22 09:18:33;;;;;;;28.73;17.60;;;6.70;82.40;;;4.43;97.70;96121.38;4954003;28;20097;-64
2021/11/22 09:20:59;;;;;;;28.13;17.77;;;6.70;82.10;;;4.47;98.01;96115.72;4969992;28;20065;-64
2021/11/22 09:23:25;;;;;;;28.38;17.63;;;6.80;82.10;;;4.53;98.39;96117.72;4971149;28;20043;-64
2021/11/22 09:25:52;;;;;;;25.77;16.90;;;6.90;81.50;;;4.60;97.46;96118.75;4971158;28;20038;-65
2021/11/22 09:28:19;;;;;;;28.30;17.27;;;7.00;81.00;;;4.66;98.05;96126.94;4969964;28;20387;-64
2021/11/22 09:30:45;;;;;;;25.08;16.35;;;7.00;81.00;;;4.71;97.47;96120.28;4970031;28;20565;-64
2021/11/22 09:33:11;;;;;;;28.58;17.25;;;7.10;80.60;;;4.78;97.28;96125.72;4953589;28;20078;-64
2021/11/22 09:35:38;;;;;;;25.10;16.75;;;7.10;80.40;;;4.82;96.21;96138.28;4969351;28;20094;-65
2021/11/22 09:38:04;;;;;;;25.77;16.38;;;7.20;80.30;;;4.86;96.74;96139.63;4969866;28;20023;-65
2021/11/22 09:40:30;;;;;;;27.48;17.38;;;7.10;80.00;;;4.90;96.40;96146.16;4970052;28;20026;-64
2021/11/22 09:42:56;;;;;;;27.13;18.15;;;7.20;80.20;;;4.96;96.42;96143.91;4953549;28;20134;-64
2021/11/22 09:45:26;;;;;;;26.60;17.17;;;7.30;80.10;;;5.00;96.74;96143.47;4969648;28;20118;-64
2021/11/22 09:47:56;;;;;;;25.90;16.58;;;7.40;80.30;;;5.05;96.79;96143.00;4987592;28;20050;-64
2021/11/22 09:50:22;;;;;;;22.00;15.60;;;7.40;80.40;;;5.08;95.81;96143.50;4969407;28;20042;-64
2021/11/22 09:52:48;;;;;;;22.60;16.65;;;7.40;79.30;;;5.11;95.63;96147.59;4969495;28;20090;-64
2021/11/22 09:55:13;;;;;;;21.50;13.75;;;7.40;79.40;;;5.14;94.98;96147.28;4969555;28;20125;-64
2021/11/22 09:57:40;;;;;;;20.33;14.52;;;7.40;78.70;;;5.14;94.94;96144.69;4970655;28;20050;-64
2021/11/22 10:00:07;;;;;;;24.30;16.17;;;7.50;78.60;;;5.17;93.45;96147.78;4969259;28;20536;-64
2021/11/22 10:02:52;;;;;;;22.35;14.90;;;7.50;78.20;;;5.17;92.76;96150.41;4953466;28;20487;-65
2021/11/22 10:05:31;;;;;;;19.98;13.95;;;7.40;78.40;;;5.16;92.94;96148.75;4969142;28;20042;-65
2021/11/22 10:08:08;;;;;;;18.10;14.10;;;7.40;78.70;;;5.19;92.78;96155.47;4922830;28;20093;-65
2021/11/22 10:10:39;;;;;;;19.83;13.65;;;7.40;78.50;;;5.18;92.69;96148.59;4969630;28;20062;-64
2021/11/22 10:13:25;;;;;;;19.50;13.68;;;7.30;78.70;;;5.17;91.92;96158.22;4953770;28;20054;-64
2021/11/22 10:16:16;;;;;;;21.23;14.95;;;7.30;78.10;;;5.13;92.30;96161.28;4970279;28;20383;-65
2021/11/22 10:18:46;;;;;;;19.65;13.18;;;7.20;78.00;;;5.13;92.75;96166.50;4966990;28;20069;-64